Time;durP1;ratioP1;P1;durP2;ratioP2;P2;SDS_P1;SDS_P2;PMS_P1;PMS_P2;Temp;Humidity;BMP_temperature;BMP_pressure;BME280_temperature;BME280_humidity;BME280_pressure;Samples;Min_cycle;Max_cycle;Signal;HPM_P1;HPM_P2
2022/12/27 00:02:11;;;;;;;8.95;1.70;;;;;;;;;;5013629;28;20619;-68
2022/12/27 00:04:37;;;;;;;8.52;1.60;;;;;;;;;;5013513;28;20030;-68
2022/12/27 00:07:02;;;;;;;5.43;1.30;;;;;;;;;;5013595;28;20056;-68
2022/12/27 00:09:27;;;;;;;8.15;2.17;;;;;;;;;;5013641;28;20022;-68
2022/12/27 00:11:53;;;;;;;14.52;2.20;;;;;;;;;;5013342;28;20083;-68
2022/12/27 00:14:18;;;;;;;14.25;2.15;;;;;;;;;;5013373;28;20087;-67
2022/12/27 00:16:44;;;;;;;6.10;2.15;;;;;;;;;;5013415;28;20022;-65
2022/12/27 00:19:09;;;;;;;9.23;2.13;;;;;;;;;;5013289;28;20363;-67
2022/12/27 00:21:35;;;;;;;10.13;1.75;;;;;;;;;;5013284;28;20025;-66
2022/12/27 00:24:01;;;;;;;11.80;1.83;;;;;;;;;;5013336;28;20030;-65
2022/12/27 00:26:32;;;;;;;8.68;2.13;;;;;;;;;;5013023;28;20061;-65
2022/12/27 00:28:58;;;;;;;7.65;1.52;;;;;;;;;;5013004;28;20072;-66
2022/12/27 00:31:26;;;;;;;8.30;1.90;;;;;;;;;;5013199;28;20490;-68
2022/12/27 00:33:54;;;;;;;9.52;2.03;;;;;;;;;;5013103;28;20046;-67
2022/12/27 00:36:22;;;;;;;13.52;2.15;;;;;;;;;;5013051;28;20328;-67
2022/12/27 00:38:48;;;;;;;9.82;2.10;;;;;;;;;;5013092;28;20033;-67
2022/12/27 00:41:15;;;;;;;5.07;1.55;;;;;;;;;;5012864;28;20108;-67
2022/12/27 00:43:40;;;;;;;13.85;1.80;;;;;;;;;;5013163;28;20021;-66
2022/12/27 00:46:06;;;;;;;8.35;1.85;;;;;;;;;;5013061;28;20026;-66
2022/12/27 00:48:32;;;;;;;8.85;1.90;;;;;;;;;;5013146;28;20049;-66
2022/12/27 00:51:05;;;;;;;7.30;1.45;;;;;;;;;;5013301;28;20017;-67
2022/12/27 00:53:32;;;;;;;14.25;1.73;;;;;;;;;;5013167;28;20026;-66
2022/12/27 00:55:58;;;;;;;8.90;1.52;;;;;;;;;;5012763;28;20033;-65
2022/12/27 00:58:24;;;;;;;10.35;1.70;;;;;;;;;;5012931;28;20037;-67
2022/12/27 01:00:50;;;;;;;9.73;2.25;;;;;;;;;;5012492;28;20026;-66
2022/12/27 01:03:16;;;;;;;7.68;1.73;;;;;;;;;;5012875;28;20033;-67
2022/12/27 01:05:42;;;;;;;6.70;1.20;;;;;;;;;;5012819;28;20072;-65
2022/12/27 01:08:08;;;;;;;7.65;1.40;;;;;;;;;;5012851;28;20152;-66
2022/12/27 01:10:33;;;;;;;6.90;1.40;;;;;;;;;;5012536;28;20033;-67
2022/12/27 01:13:01;;;;;;;10.25;1.30;;;;;;;;;;5012919;28;20030;-66
2022/12/27 01:15:26;;;;;;;16.35;2.38;;;;;;;;;;5012878;28;20050;-66
2022/12/27 01:17:52;;;;;;;11.98;2.28;;;;;;;;;;5012797;28;20061;-67
2022/12/27 01:20:17;;;;;;;10.40;1.88;;;;;;;;;;5012824;28;20032;-67
2022/12/27 01:22:43;;;;;;;12.98;1.95;;;;;;;;;;5012768;28;20113;-67
2022/12/27 01:25:08;;;;;;;12.82;1.50;;;;;;;;;;5012614;28;20030;-66
2022/12/27 01:27:34;;;;;;;9.05;1.70;;;;;;;;;;5012760;28;20430;-65
2022/12/27 01:29:59;;;;;;;11.18;1.70;;;;;;;;;;5012343;28;20034;-67
2022/12/27 01:32:24;;;;;;;3.63;1.48;;;;;;;;;;5012500;28;20030;-66
2022/12/27 01:34:50;;;;;;;10.00;1.70;;;;;;;;;;5011325;28;20452;-65
2022/12/27 01:37:15;;;;;;;8.15;2.03;;;;;;;;;;5012603;28;20069;-67
2022/12/27 01:39:41;;;;;;;6.47;1.45;;;;;;;;;;5012272;28;20026;-66
2022/12/27 01:44:59;;;;;;;12.55;1.95;;;;;;;;;;5012992;28;20032;-67
2022/12/27 01:47:44;;;;;;;5.60;1.20;;;;;;;;;;5012634;28;20018;-65
2022/12/27 01:50:28;;;;;;;8.27;1.40;;;;;;;;;;5012482;28;20101;-67
2022/12/27 01:53:12;;;;;;;6.40;1.92;;;;;;;;;;5011152;28;20360;-67
2022/12/27 01:55:37;;;;;;;6.25;1.50;;;;;;;;;;5012591;28;20033;-67
2022/12/27 01:58:12;;;;;;;6.65;1.40;;;;;;;;;;5012400;28;20030;-68
2022/12/27 02:00:40;;;;;;;9.32;1.50;;;;;;;;;;5012470;28;20034;-68
2022/12/27 02:03:06;;;;;;;7.40;1.55;;;;;;;;;;5012388;28;20105;-67
2022/12/27 02:05:32;;;;;;;5.68;1.15;;;;;;;;;;5012392;28;20042;-67
2022/12/27 02:08:05;;;;;;;6.43;1.42;;;;;;;;;;5012263;28;20037;-68
2022/12/27 02:10:31;;;;;;;9.18;1.75;;;;;;;;;;5012255;28;20026;-68
2022/12/27 02:12:57;;;;;;;10.18;1.70;;;;;;;;;;5012806;28;20021;-68
2022/12/27 02:15:22;;;;;;;11.77;1.48;;;;;;;;;;5015825;28;20030;-68
2022/12/27 02:17:48;;;;;;;13.15;1.90;;;;;;;;;;5015740;28;20030;-67
2022/12/27 02:20:21;;;;;;;9.82;1.55;;;;;;;;;;5015721;28;20025;-67
2022/12/27 02:26:12;;;;;;;10.43;1.98;;;;;;;;;;5015622;28;20033;-67
2022/12/27 02:29:05;;;;;;;10.85;1.80;;;;;;;;;;5015203;28;20442;-68
2022/12/27 02:31:39;;;;;;;8.77;2.42;;;;;;;;;;4998208;28;20172;-68
2022/12/27 02:34:13;;;;;;;7.53;1.60;;;;;;;;;;4995654;28;20113;-67
2022/12/27 02:36:39;;;;;;;9.70;1.92;;;;;;;;;;4995422;28;20064;-67
2022/12/27 02:39:05;;;;;;;7.20;1.58;;;;;;;;;;4995710;28;20534;-68
2022/12/27 02:53:05;;;;;;;5.68;1.40;;;;;;;;;;4995442;28;20108;-66
2022/12/27 02:55:40;;;;;;;9.07;1.60;;;;;;;;;;4995597;28;20030;-68
2022/12/27 02:58:14;;;;;;;9.00;1.73;;;;;;;;;;4995393;28;20030;-66
2022/12/27 03:03:36;;;;;;;11.95;2.70;;;;;;;;;;4995491;28;20025;-67
2022/12/27 03:06:40;;;;;;;9.93;1.77;;;;;;;;;;4995005;28;20464;-66
2022/12/27 03:15:54;;;;;;;5.38;1.52;;;;;;;;;;4995141;28;20081;-66
2022/12/27 03:18:45;;;;;;;4.13;1.23;;;;;;;;;;4986725;28;20070;-65
2022/12/27 03:26:49;;;;;;;10.27;1.67;;;;;;;;;;4995222;28;20045;-67
2022/12/27 03:35:02;;;;;;;9.27;1.30;;;;;;;;;;5014514;28;20092;-66
2022/12/27 03:40:29;;;;;;;8.98;1.40;;;;;;;;;;5014449;28;20446;-65
2022/12/27 03:43:09;;;;;;;8.13;1.30;;;;;;;;;;5014376;28;20026;-66
2022/12/27 03:48:29;;;;;;;13.57;1.85;;;;;;;;;;5013944;28;20198;-65
2022/12/27 03:51:03;;;;;;;12.43;2.10;;;;;;;;;;5014097;28;20033;-67
2022/12/27 03:53:40;;;;;;;6.55;1.42;;;;;;;;;;5014217;28;20061;-66
2022/12/27 03:56:06;;;;;;;6.28;1.48;;;;;;;;;;5013983;28;20117;-65
2022/12/27 03:58:32;;;;;;;33.50;8.90;;;;;;;;;;5013612;28;20042;-66
2022/12/27 04:00:57;;;;;;;4.20;1.48;;;;;;;;;;5013717;28;20449;-66
2022/12/27 04:03:23;;;;;;;6.50;1.73;;;;;;;;;;5013689;28;20033;-65
2022/12/27 04:05:48;;;;;;;10.23;2.00;;;;;;;;;;5013698;28;20026;-66
2022/12/27 04:35:33;;;;;;;9.85;1.90;;;;;;;;;;5012742;28;20032;-67
2022/12/27 04:37:58;;;;;;;9.55;1.67;;;;;;;;;;5013048;28;20433;-67
2022/12/27 04:57:01;;;;;;;6.25;1.20;;;;;;;;;;5013256;28;20091;-65
2022/12/27 05:02:11;;;;;;;6.25;1.65;;;;;;;;;;5012856;28;20088;-65
2022/12/27 05:04:38;;;;;;;9.75;1.60;;;;;;;;;;5012834;28;20132;-65
2022/12/27 05:15:21;;;;;;;7.40;1.55;;;;;;;;;;5012660;28;20549;-68
2022/12/27 05:17:47;;;;;;;12.38;2.00;;;;;;;;;;5012762;28;20029;-67
2022/12/27 05:20:12;;;;;;;6.70;1.73;;;;;;;;;;5012585;28;20485;-67
2022/12/27 05:25:33;;;;;;;8.95;1.92;;;;;;;;;;5012809;28;20129;-67
2022/12/27 05:28:10;;;;;;;10.77;2.35;;;;;;;;;;5012456;28;20030;-67
2022/12/27 05:30:37;;;;;;;8.32;2.28;;;;;;;;;;5012831;28;20479;-67
2022/12/27 05:33:03;;;;;;;9.02;2.17;;;;;;;;;;5012752;28;20112;-67
2022/12/27 05:35:29;;;;;;;8.63;2.67;;;;;;;;;;5012694;28;20029;-66
2022/12/27 05:37:55;;;;;;;8.27;1.75;;;;;;;;;;5012623;28;20116;-68
2022/12/27 05:40:22;;;;;;;4.88;1.75;;;;;;;;;;5012383;28;20030;-67
2022/12/27 05:42:48;;;;;;;5.05;1.48;;;;;;;;;;5012592;28;20430;-66
2022/12/27 05:45:13;;;;;;;8.52;2.80;;;;;;;;;;5012276;28;20025;-67
2022/12/27 05:47:39;;;;;;;7.22;1.85;;;;;;;;;;5013985;28;20088;-65
2022/12/27 05:50:06;;;;;;;2.47;1.30;;;;;;;;;;5016393;28;20026;-66
2022/12/27 05:52:31;;;;;;;6.13;1.75;;;;;;;;;;5016299;28;20026;-65
2022/12/27 05:54:57;;;;;;;7.57;1.80;;;;;;;;;;5016145;28;20022;-65
2022/12/27 05:57:22;;;;;;;6.60;2.03;;;;;;;;;;5016313;28;20022;-65
2022/12/27 05:59:48;;;;;;;4.53;1.42;;;;;;;;;;5015857;28;20486;-65
2022/12/27 06:02:13;;;;;;;3.42;1.70;;;;;;;;;;5016089;28;20387;-65
2022/12/27 06:04:38;;;;;;;6.65;2.00;;;;;;;;;;5016070;28;20041;-65
2022/12/27 06:07:04;;;;;;;6.40;2.03;;;;;;;;;;5015913;28;20038;-65
2022/12/27 06:09:29;;;;;;;4.10;1.98;;;;;;;;;;5015829;28;20076;-65
2022/12/27 06:11:55;;;;;;;4.95;1.77;;;;;;;;;;5015876;28;20364;-67
2022/12/27 06:14:20;;;;;;;11.23;2.40;;;;;;;;;;5015574;28;20057;-65
2022/12/27 06:16:46;;;;;;;10.65;2.00;;;;;;;;;;5015753;28;20442;-64
2022/12/27 06:19:11;;;;;;;8.88;2.10;;;;;;;;;;5014376;28;20120;-66
2022/12/27 06:21:36;;;;;;;5.20;2.03;;;;;;;;;;5015807;28;20060;-65
2022/12/27 06:24:02;;;;;;;7.30;2.28;;;;;;;;;;5015546;28;20110;-66
2022/12/27 06:26:29;;;;;;;10.13;2.33;;;;;;;;;;5015422;28;20080;-65
2022/12/27 06:28:56;;;;;;;11.57;2.38;;;;;;;;;;5014865;28;20351;-65
2022/12/27 06:31:22;;;;;;;5.45;2.03;;;;;;;;;;5015695;28;20076;-65
2022/12/27 06:33:50;;;;;;;6.90;1.70;;;;;;;;;;5015570;28;20083;-66
2022/12/27 06:36:18;;;;;;;6.15;2.10;;;;;;;;;;5015323;28;20052;-66
2022/12/27 06:38:44;;;;;;;6.97;2.30;;;;;;;;;;5015162;28;20036;-67
2022/12/27 06:41:12;;;;;;;4.70;1.52;;;;;;;;;;5015283;28;20489;-67
2022/12/27 06:43:38;;;;;;;6.97;2.00;;;;;;;;;;5015147;28;20029;-67
2022/12/27 06:46:08;;;;;;;10.43;2.00;;;;;;;;;;5015212;28;20041;-67
2022/12/27 06:48:33;;;;;;;10.77;2.33;;;;;;;;;;5015298;28;20129;-67
2022/12/27 06:51:03;;;;;;;5.40;2.10;;;;;;;;;;5015127;28;20117;-65
2022/12/27 06:53:28;;;;;;;18.47;8.73;;;;;;;;;;5014706;28;20583;-66
2022/12/27 06:55:54;;;;;;;8.85;2.50;;;;;;;;;;5015034;28;20251;-67
2022/12/27 06:58:19;;;;;;;8.20;2.50;;;;;;;;;;5014457;28;20037;-66
2022/12/27 07:00:45;;;;;;;7.30;1.92;;;;;;;;;;5014510;28;20028;-67
2022/12/27 07:03:10;;;;;;;7.63;2.40;;;;;;;;;;5014686;28;20055;-67
2022/12/27 07:05:37;;;;;;;8.75;2.47;;;;;;;;;;5014941;28;20029;-67
2022/12/27 07:08:03;;;;;;;6.20;1.83;;;;;;;;;;5014992;28;20061;-67
2022/12/27 07:10:29;;;;;;;4.60;2.15;;;;;;;;;;5014706;28;20041;-67
2022/12/27 07:12:55;;;;;;;10.82;2.45;;;;;;;;;;5006266;28;20034;-67
2022/12/27 07:15:21;;;;;;;7.20;2.47;;;;;;;;;;4995098;28;20034;-67
2022/12/27 07:17:46;;;;;;;6.50;2.13;;;;;;;;;;4995101;28;20054;-67
2022/12/27 07:20:11;;;;;;;8.40;2.65;;;;;;;;;;4995037;28;20022;-66
2022/12/27 07:22:37;;;;;;;10.10;2.67;;;;;;;;;;4994879;28;20510;-67
2022/12/27 07:25:03;;;;;;;8.77;2.75;;;;;;;;;;4994944;28;20026;-66
2022/12/27 07:27:32;;;;;;;8.00;2.53;;;;;;;;;;4994431;28;20109;-66
2022/12/27 07:29:57;;;;;;;6.28;2.10;;;;;;;;;;5009766;28;20085;-65
2022/12/27 07:32:23;;;;;;;7.35;2.38;;;;;;;;;;5014352;28;20061;-64
2022/12/27 07:34:48;;;;;;;6.25;2.33;;;;;;;;;;5014290;28;20032;-65
2022/12/27 07:37:13;;;;;;;4.78;1.90;;;;;;;;;;5014389;28;20057;-66
2022/12/27 07:39:39;;;;;;;8.18;2.67;;;;;;;;;;5014196;28;20064;-67
2022/12/27 07:42:04;;;;;;;7.15;2.40;;;;;;;;;;5014080;28;20499;-66
2022/12/27 07:44:30;;;;;;;11.68;2.58;;;;;;;;;;5012812;28;20018;-67
2022/12/27 07:46:55;;;;;;;8.48;2.50;;;;;;;;;;5014091;28;20081;-66
2022/12/27 07:49:21;;;;;;;5.55;2.55;;;;;;;;;;5014096;28;20030;-67
2022/12/27 07:51:46;;;;;;;4.65;2.15;;;;;;;;;;5002974;28;20035;-66
2022/12/27 07:54:12;;;;;;;7.10;2.10;;;;;;;;;;4994439;28;20107;-66
2022/12/27 07:56:37;;;;;;;8.10;2.63;;;;;;;;;;4994212;28;20022;-66
2022/12/27 07:59:03;;;;;;;6.75;2.53;;;;;;;;;;4994365;28;20435;-65
2022/12/27 08:02:02;;;;;;;4.65;2.17;;;;;;;;;;4994267;28;20467;-66
2022/12/27 08:04:18;;;;;;;12.32;2.40;;;;;;;;;;4987112;28;20042;-67
2022/12/27 08:06:44;;;;;;;6.20;2.92;;;;;;;;;;4974850;28;20392;-66
2022/12/27 08:09:14;;;;;;;5.68;2.28;;;;;;;;;;4974819;28;20053;-67
2022/12/27 08:11:39;;;;;;;6.10;2.63;;;;;;;;;;4974500;28;20066;-65
2022/12/27 08:14:04;;;;;;;8.20;2.53;;;;;;;;;;4974809;28;20418;-67
2022/12/27 08:16:30;;;;;;;9.43;3.28;;;;;;;;;;4974583;28;20549;-66
2022/12/27 08:18:55;;;;;;;5.90;2.90;;;;;;;;;;4974546;28;20034;-66
2022/12/27 08:21:22;;;;;;;11.40;3.03;;;;;;;;;;4974504;28;20069;-66
2022/12/27 08:23:47;;;;;;;8.80;3.10;;;;;;;;;;4974499;28;20082;-65
2022/12/27 08:26:13;;;;;;;13.40;3.30;;;;;;;;;;4972801;28;20031;-65
2022/12/27 08:28:39;;;;;;;8.45;3.85;;;;;;;;;;4978641;28;20484;-66
2022/12/27 08:31:06;;;;;;;7.43;3.17;;;;;;;;;;4993522;28;20026;-66
2022/12/27 08:33:32;;;;;;;7.95;3.03;;;;;;;;;;4993750;28;20356;-66
2022/12/27 08:36:06;;;;;;;12.93;3.60;;;;;;;;;;4993636;28;20033;-65
2022/12/27 08:38:32;;;;;;;12.63;3.47;;;;;;;;;;4993300;28;20026;-65
2022/12/27 08:40:58;;;;;;;11.07;3.63;;;;;;;;;;4993452;28;20054;-66
2022/12/27 08:43:24;;;;;;;9.30;2.97;;;;;;;;;;4993553;28;20031;-65
2022/12/27 08:45:49;;;;;;;15.07;2.85;;;;;;;;;;4993424;28;20018;-65
2022/12/27 08:48:14;;;;;;;7.63;3.13;;;;;;;;;;4993367;28;20105;-65
2022/12/27 08:50:40;;;;;;;7.10;2.92;;;;;;;;;;4993525;28;20109;-65
2022/12/27 08:53:05;;;;;;;7.22;3.13;;;;;;;;;;4993281;28;20508;-67
2022/12/27 08:55:32;;;;;;;11.65;3.55;;;;;;;;;;4993520;28;20026;-67
2022/12/27 08:57:58;;;;;;;8.52;3.35;;;;;;;;;;4993412;28;20065;-66
2022/12/27 09:00:25;;;;;;;11.48;3.65;;;;;;;;;;4993421;28;20441;-66
2022/12/27 09:02:51;;;;;;;9.23;3.78;;;;;;;;;;4993402;28;20030;-67
2022/12/27 09:05:18;;;;;;;10.73;2.92;;;;;;;;;;4993113;28;20468;-67
2022/12/27 09:07:44;;;;;;;9.23;3.70;;;;;;;;;;4993168;28;20038;-66
2022/12/27 09:10:09;;;;;;;8.50;3.67;;;;;;;;;;4993440;28;20018;-67
2022/12/27 09:12:35;;;;;;;8.27;3.20;;;;;;;;;;4993400;28;20048;-67
2022/12/27 09:15:00;;;;;;;7.25;3.28;;;;;;;;;;4993200;28;20379;-68
2022/12/27 09:17:26;;;;;;;6.55;3.00;;;;;;;;;;4993294;28;20034;-67
2022/12/27 09:19:51;;;;;;;8.25;3.78;;;;;;;;;;4993353;28;20129;-67
2022/12/27 09:22:17;;;;;;;9.60;3.35;;;;;;;;;;4993969;28;20058;-68
2022/12/27 09:24:42;;;;;;;8.52;3.75;;;;;;;;;;4997182;28;20113;-68
2022/12/27 09:27:08;;;;;;;9.10;3.80;;;;;;;;;;4995741;28;20042;-68
2022/12/27 09:29:33;;;;;;;8.27;3.88;;;;;;;;;;5008820;28;20034;-68
2022/12/27 09:31:58;;;;;;;13.85;3.83;;;;;;;;;;5016773;28;20049;-68
2022/12/27 09:34:24;;;;;;;10.30;3.10;;;;;;;;;;5016666;28;20018;-67
2022/12/27 09:36:49;;;;;;;8.48;2.97;;;;;;;;;;5016238;28;20026;-68
2022/12/27 09:39:16;;;;;;;9.68;3.25;;;;;;;;;;5016300;28;20029;-67
2022/12/27 09:41:59;;;;;;;9.02;3.90;;;;;;;;;;5016550;28;20074;-67
2022/12/27 09:44:45;;;;;;;8.02;3.63;;;;;;;;;;5016524;28;20030;-67
2022/12/27 09:47:34;;;;;;;7.50;3.40;;;;;;;;;;5016449;28;20026;-68
2022/12/27 09:50:08;;;;;;;11.73;3.50;;;;;;;;;;5016501;28;20112;-68
2022/12/27 09:52:39;;;;;;;7.10;3.38;;;;;;;;;;5016106;28;20057;-67
2022/12/27 09:55:11;;;;;;;6.78;3.55;;;;;;;;;;5016250;28;20495;-67
2022/12/27 09:57:43;;;;;;;11.50;3.85;;;;;;;;;;5016279;28;20026;-67
2022/12/27 10:00:14;;;;;;;11.82;3.65;;;;;;;;;;5016018;28;20040;-67
2022/12/27 10:02:43;;;;;;;17.33;4.90;;;;;;;;;;5016207;28;20036;-68
2022/12/27 10:05:18;;;;;;;9.63;4.28;;;;;;;;;;5015825;28;20121;-67
2022/12/27 10:07:52;;;;;;;9.32;3.65;;;;;;;;;;5016032;28;20077;-66
2022/12/27 10:10:35;;;;;;;10.90;3.95;;;;;;;;;;5016090;28;20450;-67
2022/12/27 10:13:26;;;;;;;8.45;3.90;;;;;;;;;;5016144;28;20502;-66
2022/12/27 10:16:10;;;;;;;5.72;2.70;;;;;;;;;;5006008;28;20048;-68
2022/12/27 10:18:48;;;;;;;10.55;3.58;;;;;;;;;;4996202;28;20026;-66
2022/12/27 10:21:21;;;;;;;10.95;4.18;;;;;;;;;;4995988;28;20034;-68
2022/12/27 10:24:24;;;;;;;9.85;2.92;;;;;;;;;;4996063;28;20102;-67
2022/12/27 10:26:52;;;;;;;8.25;3.10;;;;;;;;;;4955219;29;20043;-67
2022/12/27 10:29:22;;;;;;;10.20;3.05;;;;;;;;;;4954682;29;20118;-68
2022/12/27 10:31:48;;;;;;;10.65;3.10;;;;;;;;;;4954599;28;20098;-67
2022/12/27 10:34:15;;;;;;;8.07;2.55;;;;;;;;;;4953795;28;20094;-67
2022/12/27 10:36:42;;;;;;;5.20;2.63;;;;;;;;;;4954836;28;20043;-67
2022/12/27 10:39:29;;;;;;;8.13;3.00;;;;;;;;;;4954890;28;20039;-68
2022/12/27 10:42:27;;;;;;;7.07;2.92;;;;;;;;;;4954816;29;20055;-67
2022/12/27 10:45:25;;;;;;;8.60;2.55;;;;;;;;;;4954939;29;20066;-66
2022/12/27 10:47:52;;;;;;;9.43;3.08;;;;;;;;;;4938740;29;20134;-68
2022/12/27 10:50:21;;;;;;;7.78;2.05;;;;;;;;;;4954504;28;20040;-67
2022/12/27 10:52:47;;;;;;;10.15;3.83;;;;;;;;;;4954850;28;20401;-67
2022/12/27 10:55:38;;;;;;;9.32;3.10;;;;;;;;;;4954648;29;20046;-66
2022/12/27 10:58:33;;;;;;;15.98;3.97;;;;;;;;;;4952710;28;20485;-67
2022/12/27 11:00:59;;;;;;;6.55;2.08;;;;;;;;;;4946202;28;20055;-67
2022/12/27 11:03:25;;;;;;;10.40;3.42;;;;;;;;;;4991694;28;20042;-67
2022/12/27 11:06:05;;;;;;;11.13;4.05;;;;;;;;;;4995092;28;20159;-67
2022/12/27 11:08:31;;;;;;;9.60;2.83;;;;;;;;;;4995167;28;20114;-68
2022/12/27 11:11:17;;;;;;;7.82;3.92;;;;;;;;;;4995326;28;20041;-68
2022/12/27 11:13:43;;;;;;;8.18;2.80;;;;;;;;;;4995172;28;20364;-67
2022/12/27 11:16:30;;;;;;;8.68;3.33;;;;;;;;;;4995201;28;20030;-67
2022/12/27 11:18:58;;;;;;;8.05;2.92;;;;;;;;;;4994991;28;20034;-67
2022/12/27 11:21:26;;;;;;;4.25;2.25;;;;;;;;;;4995304;28;20042;-65
2022/12/27 11:23:56;;;;;;;11.27;4.65;;;;;;;;;;4994989;28;20026;-66
2022/12/27 11:26:38;;;;;;;14.25;4.55;;;;;;;;;;4994832;28;20022;-67
2022/12/27 11:29:04;;;;;;;5.07;2.45;;;;;;;;;;5002341;28;20099;-67
2022/12/27 11:31:32;;;;;;;6.95;2.67;;;;;;;;;;5014486;28;20029;-68
2022/12/27 11:34:02;;;;;;;10.88;2.35;;;;;;;;;;5014226;28;20436;-68
2022/12/27 11:36:31;;;;;;;9.73;2.83;;;;;;;;;;5013007;28;20535;-68
2022/12/27 11:38:59;;;;;;;8.50;2.22;;;;;;;;;;5014385;28;20045;-67
2022/12/27 11:41:38;;;;;;;3.72;1.83;;;;;;;;;;5014275;28;20033;-67
2022/12/27 11:44:07;;;;;;;4.32;1.77;;;;;;;;;;5014386;28;20529;-68
2022/12/27 11:46:41;;;;;;;9.77;2.78;;;;;;;;;;5012778;28;20387;-67
2022/12/27 11:49:16;;;;;;;4.38;2.20;;;;;;;;;;5013943;28;20037;-67
2022/12/27 11:52:03;;;;;;;12.27;3.78;;;;;;;;;;5014231;28;20110;-67
2022/12/27 11:54:56;;;;;;;8.48;2.30;;;;;;;;;;5013830;28;20026;-67
2022/12/27 11:57:54;;;;;;;5.13;1.88;;;;;;;;;;5014111;28;20038;-67
2022/12/27 12:00:25;;;;;;;7.07;2.75;;;;;;;;;;5013937;28;20029;-67
2022/12/27 12:03:12;;;;;;;9.38;3.38;;;;;;;;;;5013733;28;20030;-67
2022/12/27 12:05:55;;;;;;;5.00;1.98;;;;;;;;;;5013687;28;20026;-67
2022/12/27 12:08:53;;;;;;;7.97;2.78;;;;;;;;;;5013482;28;20084;-65
2022/12/27 12:11:33;;;;;;;9.15;2.58;;;;;;;;;;5013522;28;20105;-66
2022/12/27 12:14:17;;;;;;;;;;;;;;;;;;5014094;28;20057;-68
2022/12/27 12:16:49;;;;;;;5.65;1.95;;;;;;;;;;5013523;28;20363;-68
2022/12/27 12:19:31;;;;;;;5.18;1.50;;;;;;;;;;5013465;28;20040;-67
2022/12/27 12:22:24;;;;;;;3.90;1.48;;;;;;;;;;5013610;28;20805;-68
2022/12/27 12:25:08;;;;;;;7.85;1.90;;;;;;;;;;5013228;28;20030;-67
2022/12/27 12:27:52;;;;;;;3.85;1.77;;;;;;;;;;5012977;28;20018;-67
2022/12/27 12:30:49;;;;;;;4.07;1.45;;;;;;;;;;5013014;28;20050;-67
2022/12/27 12:33:52;;;;;;;5.70;2.00;;;;;;;;;;5013286;28;20497;-68
2022/12/27 12:36:48;;;;;;;14.40;5.45;;;;;;;;;;5013173;28;20084;-68
2022/12/27 12:39:34;;;;;;;16.55;5.40;;;;;;;;;;5011483;28;20026;-67
2022/12/27 12:42:33;;;;;;;10.25;3.97;;;;;;;;;;4987490;28;20030;-67
2022/12/27 12:45:05;;;;;;;10.95;3.22;;;;;;;;;;4982904;28;20042;-67
2022/12/27 12:47:49;;;;;;;7.57;2.97;;;;;;;;;;4991721;28;20090;-67
2022/12/27 12:50:44;;;;;;;11.52;3.63;;;;;;;;;;4982351;28;20483;-67
2022/12/27 12:53:18;;;;;;;7.88;3.25;;;;;;;;;;4982344;28;20034;-67
2022/12/27 12:55:49;;;;;;;11.25;3.05;;;;;;;;;;4982345;28;20027;-67
2022/12/27 12:58:56;;;;;;;4.35;1.52;;;;;;;;;;4982761;28;20065;-67
2022/12/27 13:01:42;;;;;;;4.95;2.33;;;;;;;;;;4964696;28;20118;-67
2022/12/27 13:04:41;;;;;;;19.27;6.47;;;;;;;;;;4952672;29;20090;-67
2022/12/27 13:07:24;;;;;;;6.10;1.88;;;;;;;;;;4952572;29;20572;-67
2022/12/27 13:10:08;;;;;;;5.25;2.50;;;;;;;;;;4952533;29;20031;-67
2022/12/27 13:12:45;;;;;;;11.15;4.43;;;;;;;;;;4952417;29;20125;-67
2022/12/27 13:15:47;;;;;;;7.05;1.95;;;;;;;;;;4952225;29;20082;-67
2022/12/27 13:18:40;;;;;;;9.90;2.05;;;;;;;;;;4952385;29;20130;-66
2022/12/27 13:21:11;;;;;;;5.53;2.75;;;;;;;;;;4952432;29;20469;-66
2022/12/27 13:23:36;;;;;;;7.20;2.90;;;;;;;;;;4952522;29;20095;-67
2022/12/27 13:26:05;;;;;;;7.82;1.65;;;;;;;;;;4952111;29;20051;-66
2022/12/27 13:28:55;;;;;;;4.90;1.92;;;;;;;;;;4954953;28;20055;-65
2022/12/27 13:31:38;;;;;;;12.32;3.08;;;;;;;;;;4972019;28;20062;-67
2022/12/27 13:34:28;;;;;;;19.38;5.40;;;;;;;;;;4973752;28;20031;-67
2022/12/27 13:37:10;;;;;;;5.63;2.33;;;;;;;;;;4972449;28;20484;-68
2022/12/27 13:39:51;;;;;;;5.32;2.50;;;;;;;;;;4973663;28;20046;-67
2022/12/27 13:42:35;;;;;;;;;;;;;;;;;;4974030;28;20031;-66
2022/12/27 13:45:36;;;;;;;10.05;2.90;;;;;;;;;;4973356;28;19918;-67
2022/12/27 13:48:07;;;;;;;14.13;3.80;;;;;;;;;;4973713;28;20054;-68
2022/12/27 13:51:11;;;;;;;6.63;2.10;;;;;;;;;;4973199;28;20093;-69
2022/12/27 13:53:37;;;;;;;5.43;2.50;;;;;;;;;;4973462;28;20516;-68
2022/12/27 13:56:18;;;;;;;7.30;3.10;;;;;;;;;;4973417;28;20047;-69
2022/12/27 13:59:11;;;;;;;10.60;2.45;;;;;;;;;;4973346;28;20023;-68
2022/12/27 14:02:05;;;;;;;10.43;3.13;;;;;;;;;;4973300;28;20027;-68
2022/12/27 14:04:40;;;;;;;11.65;3.80;;;;;;;;;;4973035;28;20041;-68
2022/12/27 14:07:31;;;;;;;6.20;2.25;;;;;;;;;;4973392;28;20101;-67
2022/12/27 14:10:16;;;;;;;10.98;4.20;;;;;;;;;;4976717;28;20038;-67
2022/12/27 14:12:55;;;;;;;8.48;3.47;;;;;;;;;;4976682;28;20153;-68
2022/12/27 14:15:28;;;;;;;9.57;3.28;;;;;;;;;;4983634;28;20045;-68
2022/12/27 14:18:29;;;;;;;11.40;3.85;;;;;;;;;;4976708;28;20038;-67
2022/12/27 14:21:00;;;;;;;8.98;2.70;;;;;;;;;;4955311;29;20031;-67
2022/12/27 14:24:08;;;;;;;9.00;3.22;;;;;;;;;;4955421;29;20106;-69
2022/12/27 14:27:04;;;;;;;15.85;2.97;;;;;;;;;;4935697;29;20073;-67
2022/12/27 14:30:02;;;;;;;8.80;2.72;;;;;;;;;;4946853;29;20054;-68
2022/12/27 14:33:05;;;;;;;10.73;4.00;;;;;;;;;;4954742;29;20120;-68
2022/12/27 14:35:42;;;;;;;7.90;2.53;;;;;;;;;;4954942;29;20039;-67
2022/12/27 14:38:32;;;;;;;6.00;1.92;;;;;;;;;;4954897;29;20043;-68
2022/12/27 14:41:15;;;;;;;12.43;2.78;;;;;;;;;;4954893;29;20098;-68
2022/12/27 14:43:58;;;;;;;9.95;2.50;;;;;;;;;;4955156;29;20110;-68
2022/12/27 14:46:53;;;;;;;6.97;1.98;;;;;;;;;;4953372;28;20038;-68
2022/12/27 14:49:33;;;;;;;6.63;2.15;;;;;;;;;;4923581;29;20143;-68
2022/12/27 14:52:17;;;;;;;7.95;2.20;;;;;;;;;;4914390;29;20598;-68
2022/12/27 14:54:56;;;;;;;10.65;2.65;;;;;;;;;;4917032;29;20124;-68
2022/12/27 14:57:30;;;;;;;9.82;2.50;;;;;;;;;;4910977;29;20068;-68
2022/12/27 15:00:11;;;;;;;6.40;2.08;;;;;;;;;;4906343;29;20071;-68
2022/12/27 15:02:42;;;;;;;9.00;3.25;;;;;;;;;;4935377;29;20187;-67
2022/12/27 15:05:25;;;;;;;11.95;3.30;;;;;;;;;;4939934;29;20032;-66
2022/12/27 15:08:17;;;;;;;2.90;1.70;;;;;;;;;;4954582;29;20479;-67
2022/12/27 15:10:55;;;;;;;13.88;3.15;;;;;;;;;;4954154;29;20027;-68
2022/12/27 15:13:32;;;;;;;12.77;4.07;;;;;;;;;;4954376;29;20446;-68
2022/12/27 15:16:22;;;;;;;9.23;1.80;;;;;;;;;;4954336;29;20042;-68
2022/12/27 15:19:16;;;;;;;3.00;1.08;;;;;;;;;;4954142;29;20045;-69
2022/12/27 15:21:54;;;;;;;10.18;1.80;;;;;;;;;;4953296;29;20043;-68
2022/12/27 15:24:19;;;;;;;15.88;4.00;;;;;;;;;;4953926;29;20081;-68
2022/12/27 15:26:51;;;;;;;8.02;2.28;;;;;;;;;;4982582;28;20056;-69
2022/12/27 15:29:32;;;;;;;4.43;1.80;;;;;;;;;;5004324;28;20038;-69
2022/12/27 15:32:20;;;;;;;10.10;2.03;;;;;;;;;;5014570;28;20177;-69
2022/12/27 15:34:53;;;;;;;9.00;2.15;;;;;;;;;;5013883;28;20022;-68
2022/12/27 15:37:46;;;;;;;7.60;2.08;;;;;;;;;;5014490;28;20037;-68
2022/12/27 15:40:23;;;;;;;8.55;2.35;;;;;;;;;;5014116;28;20030;-69
2022/12/27 15:43:01;;;;;;;10.57;2.75;;;;;;;;;;5014263;28;20026;-68
2022/12/27 15:45:55;;;;;;;10.43;2.63;;;;;;;;;;5014246;28;20121;-69
2022/12/27 15:48:45;;;;;;;12.02;2.72;;;;;;;;;;5014210;28;20030;-69
2022/12/27 15:51:22;;;;;;;7.97;3.05;;;;;;;;;;5014215;28;20017;-67
2022/12/27 15:54:16;;;;;;;21.70;5.80;;;;;;;;;;5013914;28;20037;-66
2022/12/27 15:56:52;;;;;;;8.77;2.60;;;;;;;;;;5013942;28;20029;-67
2022/12/27 15:59:32;;;;;;;6.95;2.40;;;;;;;;;;4999204;28;20488;-69
2022/12/27 16:02:40;;;;;;;7.80;1.90;;;;;;;;;;4988901;28;20550;-69
2022/12/27 16:05:12;;;;;;;5.72;1.80;;;;;;;;;;4989189;28;20031;-69
2022/12/27 16:07:45;;;;;;;7.28;1.83;;;;;;;;;;4982358;28;20026;-69
2022/12/27 16:10:29;;;;;;;8.13;2.42;;;;;;;;;;4974722;28;20109;-69
2022/12/27 16:12:57;;;;;;;9.23;2.47;;;;;;;;;;4974579;28;20031;-70
2022/12/27 16:15:48;;;;;;;10.73;2.83;;;;;;;;;;4974487;28;20039;-66
2022/12/27 16:18:19;;;;;;;10.45;2.53;;;;;;;;;;4974665;28;20106;-64
2022/12/27 16:20:58;;;;;;;8.70;2.03;;;;;;;;;;4976936;28;20038;-67
2022/12/27 16:23:25;;;;;;;5.90;1.70;;;;;;;;;;4991551;28;20026;-70
2022/12/27 16:26:07;;;;;;;9.38;2.08;;;;;;;;;;4993763;28;20097;-70
2022/12/27 16:28:35;;;;;;;4.75;1.80;;;;;;;;;;4996950;28;20037;-65
2022/12/27 16:31:04;;;;;;;13.43;3.35;;;;;;;;;;5012958;28;20113;-65
2022/12/27 16:33:36;;;;;;;7.95;2.20;;;;;;;;;;5000530;28;20026;-67
2022/12/27 16:36:11;;;;;;;12.95;2.78;;;;;;;;;;4983374;28;20098;-67
2022/12/27 16:39:13;;;;;;;6.78;2.03;;;;;;;;;;4982557;28;20369;-66
2022/12/27 16:41:54;;;;;;;7.30;2.20;;;;;;;;;;4981123;28;20038;-65
2022/12/27 16:44:25;;;;;;;6.03;2.30;;;;;;;;;;4982890;28;20030;-67
2022/12/27 16:47:00;;;;;;;6.28;2.20;;;;;;;;;;4983072;28;20082;-66
2022/12/27 16:49:47;;;;;;;7.88;2.17;;;;;;;;;;4983148;28;20030;-66
2022/12/27 16:52:16;;;;;;;13.57;2.50;;;;;;;;;;4980202;28;20401;-65
2022/12/27 16:55:11;;;;;;;14.23;2.72;;;;;;;;;;4981266;28;20030;-66
2022/12/27 16:57:43;;;;;;;8.30;2.10;;;;;;;;;;4985320;28;20377;-66
2022/12/27 17:00:37;;;;;;;7.43;2.22;;;;;;;;;;4986490;28;20539;-65
2022/12/27 17:03:20;;;;;;;8.18;2.20;;;;;;;;;;4982107;28;20056;-66